sensor_id;sensor_type;location;lat;lon;timestamp;P1;durP1;ratioP1;P2;durP2;ratioP2
16272;SDS011;8244;50.044;9.006;2022-12-26T00:01:10;7.07;;;3.22;;
16272;SDS011;8244;50.044;9.006;2022-12-26T00:06:13;5.05;;;3.25;;
16272;SDS011;8244;50.044;9.006;2022-12-26T00:11:18;5.18;;;3.22;;
16272;SDS011;8244;50.044;9.006;2022-12-26T00:16:20;5.28;;;2.90;;
16272;SDS011;8244;50.044;9.006;2022-12-26T00:21:22;5.35;;;3.17;;
16272;SDS011;8244;50.044;9.006;2022-12-26T00:26:28;9.82;;;5.05;;
16272;SDS011;8244;50.044;9.006;2022-12-26T00:31:31;6.57;;;3.25;;
16272;SDS011;8244;50.044;9.006;2022-12-26T00:36:34;7.43;;;3.33;;
16272;SDS011;8244;50.044;9.006;2022-12-26T00:41:37;7.65;;;3.80;;
16272;SDS011;8244;50.044;9.006;2022-12-26T00:46:39;7.80;;;3.83;;
16272;SDS011;8244;50.044;9.006;2022-12-26T00:51:40;7.93;;;3.70;;
16272;SDS011;8244;50.044;9.006;2022-12-26T00:56:43;7.00;;;3.30;;
16272;SDS011;8244;50.044;9.006;2022-12-26T01:01:45;6.20;;;3.10;;
16272;SDS011;8244;50.044;9.006;2022-12-26T01:06:47;5.85;;;3.03;;
16272;SDS011;8244;50.044;9.006;2022-12-26T01:11:50;7.05;;;3.03;;
16272;SDS011;8244;50.044;9.006;2022-12-26T01:16:51;5.88;;;3.08;;
16272;SDS011;8244;50.044;9.006;2022-12-26T01:21:53;5.18;;;3.00;;
16272;SDS011;8244;50.044;9.006;2022-12-26T01:26:56;7.85;;;3.00;;
16272;SDS011;8244;50.044;9.006;2022-12-26T01:31:57;4.22;;;2.63;;
16272;SDS011;8244;50.044;9.006;2022-12-26T01:36:59;4.60;;;2.70;;
16272;SDS011;8244;50.044;9.006;2022-12-26T01:42:02;6.20;;;2.92;;
16272;SDS011;8244;50.044;9.006;2022-12-26T01:47:08;6.90;;;2.97;;
16272;SDS011;8244;50.044;9.006;2022-12-26T01:52:11;5.90;;;2.70;;
16272;SDS011;8244;50.044;9.006;2022-12-26T01:57:18;6.13;;;2.78;;
16272;SDS011;8244;50.044;9.006;2022-12-26T02:02:24;5.63;;;2.80;;
16272;SDS011;8244;50.044;9.006;2022-12-26T02:07:28;7.15;;;2.72;;
16272;SDS011;8244;50.044;9.006;2022-12-26T02:12:33;3.95;;;2.63;;
16272;SDS011;8244;50.044;9.006;2022-12-26T02:17:36;4.47;;;2.60;;
16272;SDS011;8244;50.044;9.006;2022-12-26T02:22:42;5.40;;;2.85;;
16272;SDS011;8244;50.044;9.006;2022-12-26T02:28:23;11.52;;;4.25;;
16272;SDS011;8244;50.044;9.006;2022-12-26T02:33:51;4.50;;;2.83;;
16272;SDS011;8244;50.044;9.006;2022-12-26T02:39:07;7.30;;;2.90;;
16272;SDS011;8244;50.044;9.006;2022-12-26T02:44:21;4.78;;;2.72;;
16272;SDS011;8244;50.044;9.006;2022-12-26T02:49:51;4.47;;;2.83;;
16272;SDS011;8244;50.044;9.006;2022-12-26T02:55:21;5.30;;;3.10;;
16272;SDS011;8244;50.044;9.006;2022-12-26T03:00:44;6.20;;;2.75;;
16272;SDS011;8244;50.044;9.006;2022-12-26T03:06:07;7.78;;;2.50;;
16272;SDS011;8244;50.044;9.006;2022-12-26T03:11:33;7.70;;;2.70;;
16272;SDS011;8244;50.044;9.006;2022-12-26T03:16:56;6.28;;;2.60;;
16272;SDS011;8244;50.044;9.006;2022-12-26T03:22:20;5.47;;;2.78;;
16272;SDS011;8244;50.044;9.006;2022-12-26T03:27:30;6.00;;;2.60;;
16272;SDS011;8244;50.044;9.006;2022-12-26T03:32:40;7.32;;;2.60;;
16272;SDS011;8244;50.044;9.006;2022-12-26T03:37:46;4.25;;;2.33;;
16272;SDS011;8244;50.044;9.006;2022-12-26T03:42:54;4.50;;;2.90;;
16272;SDS011;8244;50.044;9.006;2022-12-26T03:48:19;4.95;;;2.63;;
16272;SDS011;8244;50.044;9.006;2022-12-26T03:53:48;6.88;;;2.58;;
16272;SDS011;8244;50.044;9.006;2022-12-26T03:59:12;5.80;;;2.50;;
16272;SDS011;8244;50.044;9.006;2022-12-26T04:04:35;9.50;;;2.58;;
16272;SDS011;8244;50.044;9.006;2022-12-26T04:09:59;7.95;;;2.58;;
16272;SDS011;8244;50.044;9.006;2022-12-26T04:15:23;6.03;;;2.70;;
16272;SDS011;8244;50.044;9.006;2022-12-26T04:20:49;5.70;;;2.83;;
16272;SDS011;8244;50.044;9.006;2022-12-26T04:25:58;5.28;;;2.70;;
16272;SDS011;8244;50.044;9.006;2022-12-26T04:31:24;5.97;;;2.80;;
16272;SDS011;8244;50.044;9.006;2022-12-26T04:36:48;7.65;;;2.72;;
16272;SDS011;8244;50.044;9.006;2022-12-26T04:42:16;7.22;;;2.67;;
16272;SDS011;8244;50.044;9.006;2022-12-26T04:47:37;6.05;;;2.53;;
16272;SDS011;8244;50.044;9.006;2022-12-26T04:52:59;8.25;;;2.50;;
16272;SDS011;8244;50.044;9.006;2022-12-26T04:58:03;6.15;;;2.45;;
16272;SDS011;8244;50.044;9.006;2022-12-26T05:03:05;7.43;;;2.63;;
16272;SDS011;8244;50.044;9.006;2022-12-26T05:08:32;5.47;;;2.55;;
16272;SDS011;8244;50.044;9.006;2022-12-26T05:13:55;6.47;;;2.72;;
16272;SDS011;8244;50.044;9.006;2022-12-26T05:18:58;4.63;;;2.42;;
16272;SDS011;8244;50.044;9.006;2022-12-26T05:24:17;4.15;;;2.40;;
16272;SDS011;8244;50.044;9.006;2022-12-26T05:29:37;4.68;;;2.47;;
16272;SDS011;8244;50.044;9.006;2022-12-26T05:34:39;4.38;;;2.40;;
16272;SDS011;8244;50.044;9.006;2022-12-26T05:39:41;7.28;;;2.80;;
16272;SDS011;8244;50.044;9.006;2022-12-26T05:44:44;3.13;;;2.25;;
16272;SDS011;8244;50.044;9.006;2022-12-26T05:49:46;3.58;;;2.20;;
16272;SDS011;8244;50.044;9.006;2022-12-26T05:54:48;4.95;;;2.15;;
16272;SDS011;8244;50.044;9.006;2022-12-26T05:59:51;3.95;;;2.35;;
16272;SDS011;8244;50.044;9.006;2022-12-26T06:04:52;4.05;;;2.00;;
16272;SDS011;8244;50.044;9.006;2022-12-26T06:09:54;7.30;;;2.40;;
16272;SDS011;8244;50.044;9.006;2022-12-26T06:14:57;6.80;;;2.70;;
16272;SDS011;8244;50.044;9.006;2022-12-26T06:19:59;8.02;;;2.53;;
16272;SDS011;8244;50.044;9.006;2022-12-26T06:25:00;7.43;;;2.40;;
16272;SDS011;8244;50.044;9.006;2022-12-26T06:30:04;7.30;;;2.95;;
16272;SDS011;8244;50.044;9.006;2022-12-26T06:35:06;4.35;;;2.60;;
16272;SDS011;8244;50.044;9.006;2022-12-26T06:40:08;5.40;;;2.40;;
16272;SDS011;8244;50.044;9.006;2022-12-26T06:45:12;5.10;;;2.38;;
16272;SDS011;8244;50.044;9.006;2022-12-26T06:50:13;5.13;;;2.10;;
16272;SDS011;8244;50.044;9.006;2022-12-26T06:55:15;3.58;;;2.33;;
16272;SDS011;8244;50.044;9.006;2022-12-26T07:00:18;4.97;;;2.40;;
16272;SDS011;8244;50.044;9.006;2022-12-26T07:05:21;8.13;;;2.47;;
16272;SDS011;8244;50.044;9.006;2022-12-26T07:10:23;4.65;;;3.03;;
16272;SDS011;8244;50.044;9.006;2022-12-26T07:15:26;5.28;;;2.60;;
16272;SDS011;8244;50.044;9.006;2022-12-26T07:20:27;4.57;;;2.47;;
16272;SDS011;8244;50.044;9.006;2022-12-26T07:25:29;4.30;;;2.53;;
16272;SDS011;8244;50.044;9.006;2022-12-26T07:30:32;6.65;;;2.70;;
16272;SDS011;8244;50.044;9.006;2022-12-26T07:35:33;6.88;;;2.50;;
16272;SDS011;8244;50.044;9.006;2022-12-26T07:40:35;5.50;;;2.78;;
16272;SDS011;8244;50.044;9.006;2022-12-26T07:45:38;6.80;;;2.72;;
16272;SDS011;8244;50.044;9.006;2022-12-26T07:50:40;5.40;;;2.95;;
16272;SDS011;8244;50.044;9.006;2022-12-26T07:55:44;6.43;;;2.92;;
16272;SDS011;8244;50.044;9.006;2022-12-26T08:00:48;5.80;;;2.65;;
16272;SDS011;8244;50.044;9.006;2022-12-26T08:05:50;6.47;;;3.50;;
16272;SDS011;8244;50.044;9.006;2022-12-26T08:10:56;6.85;;;2.92;;
16272;SDS011;8244;50.044;9.006;2022-12-26T08:16:02;6.20;;;3.08;;
16272;SDS011;8244;50.044;9.006;2022-12-26T08:21:05;5.53;;;2.88;;
16272;SDS011;8244;50.044;9.006;2022-12-26T08:26:07;6.30;;;2.90;;
16272;SDS011;8244;50.044;9.006;2022-12-26T08:31:11;6.47;;;3.40;;
16272;SDS011;8244;50.044;9.006;2022-12-26T08:36:14;8.18;;;3.33;;
16272;SDS011;8244;50.044;9.006;2022-12-26T08:41:18;5.90;;;3.08;;
16272;SDS011;8244;50.044;9.006;2022-12-26T08:46:21;7.07;;;3.28;;
16272;SDS011;8244;50.044;9.006;2022-12-26T08:51:23;7.72;;;3.00;;
16272;SDS011;8244;50.044;9.006;2022-12-26T08:56:25;7.68;;;3.10;;
16272;SDS011;8244;50.044;9.006;2022-12-26T09:01:29;5.22;;;3.22;;
16272;SDS011;8244;50.044;9.006;2022-12-26T09:06:31;7.25;;;3.25;;
16272;SDS011;8244;50.044;9.006;2022-12-26T09:11:34;7.70;;;2.90;;
16272;SDS011;8244;50.044;9.006;2022-12-26T09:16:39;7.53;;;3.20;;
16272;SDS011;8244;50.044;9.006;2022-12-26T09:21:42;6.85;;;3.28;;
16272;SDS011;8244;50.044;9.006;2022-12-26T09:26:44;4.32;;;2.70;;
16272;SDS011;8244;50.044;9.006;2022-12-26T09:31:47;6.25;;;3.00;;
16272;SDS011;8244;50.044;9.006;2022-12-26T09:36:49;4.47;;;2.63;;
16272;SDS011;8244;50.044;9.006;2022-12-26T09:41:57;6.45;;;2.92;;
16272;SDS011;8244;50.044;9.006;2022-12-26T09:47:13;5.15;;;2.60;;
16272;SDS011;8244;50.044;9.006;2022-12-26T09:52:22;7.55;;;2.40;;
16272;SDS011;8244;50.044;9.006;2022-12-26T09:57:28;5.00;;;2.67;;
16272;SDS011;8244;50.044;9.006;2022-12-26T10:02:36;4.00;;;2.50;;
16272;SDS011;8244;50.044;9.006;2022-12-26T10:07:39;4.93;;;2.55;;
16272;SDS011;8244;50.044;9.006;2022-12-26T10:12:49;4.60;;;3.00;;
16272;SDS011;8244;50.044;9.006;2022-12-26T10:18:01;5.28;;;2.50;;
16272;SDS011;8244;50.044;9.006;2022-12-26T10:23:17;5.70;;;2.20;;
16272;SDS011;8244;50.044;9.006;2022-12-26T10:28:31;3.17;;;2.30;;
16272;SDS011;8244;50.044;9.006;2022-12-26T10:33:39;3.40;;;1.98;;
16272;SDS011;8244;50.044;9.006;2022-12-26T10:38:45;3.47;;;2.47;;
16272;SDS011;8244;50.044;9.006;2022-12-26T10:43:50;2.72;;;1.90;;
16272;SDS011;8244;50.044;9.006;2022-12-26T10:48:54;5.07;;;2.40;;
16272;SDS011;8244;50.044;9.006;2022-12-26T10:53:56;3.85;;;2.55;;
16272;SDS011;8244;50.044;9.006;2022-12-26T10:58:59;3.00;;;1.92;;
16272;SDS011;8244;50.044;9.006;2022-12-26T11:04:05;3.88;;;2.42;;
16272;SDS011;8244;50.044;9.006;2022-12-26T11:09:23;5.25;;;3.45;;
16272;SDS011;8244;50.044;9.006;2022-12-26T11:14:36;5.45;;;2.88;;
16272;SDS011;8244;50.044;9.006;2022-12-26T11:19:41;6.00;;;3.00;;
16272;SDS011;8244;50.044;9.006;2022-12-26T11:24:44;5.07;;;3.13;;
16272;SDS011;8244;50.044;9.006;2022-12-26T11:29:45;6.38;;;2.90;;
16272;SDS011;8244;50.044;9.006;2022-12-26T11:34:48;5.38;;;2.53;;
16272;SDS011;8244;50.044;9.006;2022-12-26T11:39:51;3.78;;;2.70;;
16272;SDS011;8244;50.044;9.006;2022-12-26T11:44:53;4.18;;;2.20;;
16272;SDS011;8244;50.044;9.006;2022-12-26T11:49:58;4.28;;;2.40;;
16272;SDS011;8244;50.044;9.006;2022-12-26T11:55:22;3.80;;;2.20;;
16272;SDS011;8244;50.044;9.006;2022-12-26T12:00:27;4.53;;;2.17;;
16272;SDS011;8244;50.044;9.006;2022-12-26T12:05:36;3.22;;;2.60;;
16272;SDS011;8244;50.044;9.006;2022-12-26T12:16:14;8.60;;;3.10;;
16272;SDS011;8244;50.044;9.006;2022-12-26T12:21:35;6.63;;;2.78;;
16272;SDS011;8244;50.044;9.006;2022-12-26T12:26:44;4.60;;;2.60;;
16272;SDS011;8244;50.044;9.006;2022-12-26T12:31:55;4.30;;;3.00;;
16272;SDS011;8244;50.044;9.006;2022-12-26T12:37:13;4.38;;;2.35;;
16272;SDS011;8244;50.044;9.006;2022-12-26T12:42:29;4.28;;;2.63;;
16272;SDS011;8244;50.044;9.006;2022-12-26T12:47:42;4.03;;;2.30;;
16272;SDS011;8244;50.044;9.006;2022-12-26T12:52:59;4.63;;;2.33;;
16272;SDS011;8244;50.044;9.006;2022-12-26T12:58:13;2.97;;;2.10;;
16272;SDS011;8244;50.044;9.006;2022-12-26T13:03:26;6.07;;;2.28;;
16272;SDS011;8244;50.044;9.006;2022-12-26T13:08:35;2.95;;;1.98;;
16272;SDS011;8244;50.044;9.006;2022-12-26T13:13:40;9.00;;;2.63;;
16272;SDS011;8244;50.044;9.006;2022-12-26T13:18:47;4.70;;;2.28;;
16272;SDS011;8244;50.044;9.006;2022-12-26T13:23:54;3.05;;;1.65;;
16272;SDS011;8244;50.044;9.006;2022-12-26T13:29:30;4.07;;;1.77;;
16272;SDS011;8244;50.044;9.006;2022-12-26T13:34:34;3.80;;;1.80;;
16272;SDS011;8244;50.044;9.006;2022-12-26T13:39:38;4.70;;;2.42;;
16272;SDS011;8244;50.044;9.006;2022-12-26T13:44:40;4.53;;;1.85;;
16272;SDS011;8244;50.044;9.006;2022-12-26T13:49:42;5.15;;;2.10;;
16272;SDS011;8244;50.044;9.006;2022-12-26T14:00:22;4.03;;;1.77;;
16272;SDS011;8244;50.044;9.006;2022-12-26T14:05:42;3.72;;;1.70;;
16272;SDS011;8244;50.044;9.006;2022-12-26T14:10:56;4.68;;;1.60;;
16272;SDS011;8244;50.044;9.006;2022-12-26T14:16:07;4.38;;;1.60;;
16272;SDS011;8244;50.044;9.006;2022-12-26T14:26:42;3.40;;;1.50;;
16272;SDS011;8244;50.044;9.006;2022-12-26T14:31:54;3.72;;;1.90;;
16272;SDS011;8244;50.044;9.006;2022-12-26T14:37:09;2.75;;;1.48;;
16272;SDS011;8244;50.044;9.006;2022-12-26T14:42:20;3.42;;;1.55;;
16272;SDS011;8244;50.044;9.006;2022-12-26T14:47:43;3.03;;;1.80;;
16272;SDS011;8244;50.044;9.006;2022-12-26T14:52:46;3.85;;;2.00;;
16272;SDS011;8244;50.044;9.006;2022-12-26T14:57:48;4.38;;;1.70;;
16272;SDS011;8244;50.044;9.006;2022-12-26T15:03:06;3.67;;;1.60;;
16272;SDS011;8244;50.044;9.006;2022-12-26T15:08:38;6.35;;;2.10;;
16272;SDS011;8244;50.044;9.006;2022-12-26T15:14:00;5.28;;;1.85;;
16272;SDS011;8244;50.044;9.006;2022-12-26T15:30:39;3.58;;;1.55;;
16272;SDS011;8244;50.044;9.006;2022-12-26T15:36:02;3.47;;;1.33;;
16272;SDS011;8244;50.044;9.006;2022-12-26T15:41:11;4.57;;;1.58;;
16272;SDS011;8244;50.044;9.006;2022-12-26T15:46:16;2.67;;;1.50;;
16272;SDS011;8244;50.044;9.006;2022-12-26T15:51:23;1.88;;;1.45;;
16272;SDS011;8244;50.044;9.006;2022-12-26T15:56:43;6.05;;;1.23;;
16272;SDS011;8244;50.044;9.006;2022-12-26T16:01:56;0.98;;;0.80;;
16272;SDS011;8244;50.044;9.006;2022-12-26T16:07:05;3.53;;;1.80;;
16272;SDS011;8244;50.044;9.006;2022-12-26T16:12:19;4.50;;;1.95;;
16272;SDS011;8244;50.044;9.006;2022-12-26T16:17:25;4.60;;;2.30;;
16272;SDS011;8244;50.044;9.006;2022-12-26T16:22:31;3.88;;;1.80;;
16272;SDS011;8244;50.044;9.006;2022-12-26T16:27:45;8.07;;;4.68;;
16272;SDS011;8244;50.044;9.006;2022-12-26T16:32:49;11.38;;;4.50;;
16272;SDS011;8244;50.044;9.006;2022-12-26T16:37:54;4.53;;;3.15;;
16272;SDS011;8244;50.044;9.006;2022-12-26T16:42:58;3.50;;;1.80;;
16272;SDS011;8244;50.044;9.006;2022-12-26T16:48:05;2.53;;;1.70;;
16272;SDS011;8244;50.044;9.006;2022-12-26T16:53:11;2.85;;;2.10;;
16272;SDS011;8244;50.044;9.006;2022-12-26T16:58:19;3.30;;;1.98;;
16272;SDS011;8244;50.044;9.006;2022-12-26T17:03:25;5.30;;;1.92;;
16272;SDS011;8244;50.044;9.006;2022-12-26T17:08:31;4.43;;;1.50;;
16272;SDS011;8244;50.044;9.006;2022-12-26T17:13:33;5.00;;;2.15;;
16272;SDS011;8244;50.044;9.006;2022-12-26T17:18:38;8.27;;;3.63;;
16272;SDS011;8244;50.044;9.006;2022-12-26T17:24:01;3.67;;;2.30;;
16272;SDS011;8244;50.044;9.006;2022-12-26T17:29:33;3.35;;;1.60;;
16272;SDS011;8244;50.044;9.006;2022-12-26T17:34:36;3.75;;;1.80;;
16272;SDS011;8244;50.044;9.006;2022-12-26T17:39:40;5.82;;;2.58;;
16272;SDS011;8244;50.044;9.006;2022-12-26T17:44:43;9.02;;;3.95;;
16272;SDS011;8244;50.044;9.006;2022-12-26T17:49:46;5.07;;;2.45;;
16272;SDS011;8244;50.044;9.006;2022-12-26T17:54:50;2.70;;;1.30;;
16272;SDS011;8244;50.044;9.006;2022-12-26T17:59:52;4.57;;;1.77;;
16272;SDS011;8244;50.044;9.006;2022-12-26T18:04:54;5.53;;;2.90;;
16272;SDS011;8244;50.044;9.006;2022-12-26T18:09:57;3.50;;;2.15;;
16272;SDS011;8244;50.044;9.006;2022-12-26T18:14:59;5.85;;;2.67;;
16272;SDS011;8244;50.044;9.006;2022-12-26T18:20:04;3.97;;;1.95;;
16272;SDS011;8244;50.044;9.006;2022-12-26T18:25:12;3.70;;;2.53;;
16272;SDS011;8244;50.044;9.006;2022-12-26T18:30:15;5.25;;;2.20;;
16272;SDS011;8244;50.044;9.006;2022-12-26T18:35:18;5.72;;;1.70;;
16272;SDS011;8244;50.044;9.006;2022-12-26T18:40:27;3.08;;;1.70;;
16272;SDS011;8244;50.044;9.006;2022-12-26T18:45:31;4.13;;;1.83;;
16272;SDS011;8244;50.044;9.006;2022-12-26T18:50:34;3.25;;;1.83;;
16272;SDS011;8244;50.044;9.006;2022-12-26T18:55:37;6.57;;;2.00;;
16272;SDS011;8244;50.044;9.006;2022-12-26T19:00:39;1.88;;;1.65;;
16272;SDS011;8244;50.044;9.006;2022-12-26T19:05:41;3.47;;;1.90;;
16272;SDS011;8244;50.044;9.006;2022-12-26T19:10:44;2.53;;;1.80;;
16272;SDS011;8244;50.044;9.006;2022-12-26T19:15:46;2.53;;;1.80;;
16272;SDS011;8244;50.044;9.006;2022-12-26T19:20:48;3.38;;;1.50;;
16272;SDS011;8244;50.044;9.006;2022-12-26T19:25:51;1.35;;;1.17;;
16272;SDS011;8244;50.044;9.006;2022-12-26T19:30:53;2.00;;;1.33;;
16272;SDS011;8244;50.044;9.006;2022-12-26T19:35:54;3.22;;;1.50;;
16272;SDS011;8244;50.044;9.006;2022-12-26T19:41:00;2.42;;;1.40;;
16272;SDS011;8244;50.044;9.006;2022-12-26T19:46:03;1.35;;;1.23;;
16272;SDS011;8244;50.044;9.006;2022-12-26T19:51:07;3.05;;;1.38;;
16272;SDS011;8244;50.044;9.006;2022-12-26T19:56:12;4.20;;;1.70;;
16272;SDS011;8244;50.044;9.006;2022-12-26T20:01:16;2.40;;;1.35;;
16272;SDS011;8244;50.044;9.006;2022-12-26T20:06:20;2.60;;;1.25;;
16272;SDS011;8244;50.044;9.006;2022-12-26T20:11:26;3.58;;;1.80;;
16272;SDS011;8244;50.044;9.006;2022-12-26T20:16:29;2.47;;;1.70;;
16272;SDS011;8244;50.044;9.006;2022-12-26T20:21:31;2.08;;;1.65;;
16272;SDS011;8244;50.044;9.006;2022-12-26T20:26:34;4.35;;;1.90;;
16272;SDS011;8244;50.044;9.006;2022-12-26T20:31:36;4.82;;;2.03;;
16272;SDS011;8244;50.044;9.006;2022-12-26T20:36:39;6.43;;;3.22;;
16272;SDS011;8244;50.044;9.006;2022-12-26T20:41:42;7.13;;;3.80;;
16272;SDS011;8244;50.044;9.006;2022-12-26T20:46:45;4.82;;;2.70;;
16272;SDS011;8244;50.044;9.006;2022-12-26T20:51:46;8.38;;;4.10;;
16272;SDS011;8244;50.044;9.006;2022-12-26T20:56:49;6.90;;;2.75;;
16272;SDS011;8244;50.044;9.006;2022-12-26T21:01:51;5.88;;;2.10;;
16272;SDS011;8244;50.044;9.006;2022-12-26T21:06:53;8.48;;;4.20;;
16272;SDS011;8244;50.044;9.006;2022-12-26T21:11:56;7.47;;;3.70;;
16272;SDS011;8244;50.044;9.006;2022-12-26T21:16:58;7.47;;;3.10;;
16272;SDS011;8244;50.044;9.006;2022-12-26T21:21:59;6.32;;;2.70;;
16272;SDS011;8244;50.044;9.006;2022-12-26T21:27:02;2.50;;;1.70;;
16272;SDS011;8244;50.044;9.006;2022-12-26T21:32:04;2.13;;;1.42;;
16272;SDS011;8244;50.044;9.006;2022-12-26T21:37:06;2.53;;;1.60;;
16272;SDS011;8244;50.044;9.006;2022-12-26T21:42:27;3.40;;;1.50;;
16272;SDS011;8244;50.044;9.006;2022-12-26T21:47:28;3.80;;;1.40;;
16272;SDS011;8244;50.044;9.006;2022-12-26T21:52:30;4.22;;;1.55;;
16272;SDS011;8244;50.044;9.006;2022-12-26T21:57:33;3.97;;;1.55;;
16272;SDS011;8244;50.044;9.006;2022-12-26T22:02:35;4.70;;;1.50;;
16272;SDS011;8244;50.044;9.006;2022-12-26T22:07:56;2.47;;;1.13;;
16272;SDS011;8244;50.044;9.006;2022-12-26T22:13:01;6.32;;;1.60;;
16272;SDS011;8244;50.044;9.006;2022-12-26T22:18:03;4.50;;;1.30;;
16272;SDS011;8244;50.044;9.006;2022-12-26T22:23:04;2.47;;;1.50;;
16272;SDS011;8244;50.044;9.006;2022-12-26T22:28:07;3.73;;;1.10;;
16272;SDS011;8244;50.044;9.006;2022-12-26T22:33:09;5.32;;;1.45;;
16272;SDS011;8244;50.044;9.006;2022-12-26T22:38:10;2.67;;;1.50;;
16272;SDS011;8244;50.044;9.006;2022-12-26T22:43:13;4.72;;;1.50;;
16272;SDS011;8244;50.044;9.006;2022-12-26T22:48:15;4.87;;;1.70;;
16272;SDS011;8244;50.044;9.006;2022-12-26T22:53:17;4.43;;;1.60;;
16272;SDS011;8244;50.044;9.006;2022-12-26T22:58:20;4.67;;;1.57;;
16272;SDS011;8244;50.044;9.006;2022-12-26T23:03:22;4.27;;;1.53;;
16272;SDS011;8244;50.044;9.006;2022-12-26T23:08:25;6.10;;;2.00;;
16272;SDS011;8244;50.044;9.006;2022-12-26T23:13:29;3.97;;;1.57;;
16272;SDS011;8244;50.044;9.006;2022-12-26T23:18:32;4.37;;;1.60;;
16272;SDS011;8244;50.044;9.006;2022-12-26T23:23:56;4.77;;;1.90;;
16272;SDS011;8244;50.044;9.006;2022-12-26T23:28:59;4.67;;;1.33;;
16272;SDS011;8244;50.044;9.006;2022-12-26T23:34:18;2.93;;;1.30;;
16272;SDS011;8244;50.044;9.006;2022-12-26T23:39:20;5.30;;;1.30;;
16272;SDS011;8244;50.044;9.006;2022-12-26T23:44:23;3.50;;;1.27;;
16272;SDS011;8244;50.044;9.006;2022-12-26T23:49:25;2.73;;;1.20;;
16272;SDS011;8244;50.044;9.006;2022-12-26T23:54:26;6.70;;;1.63;;
16272;SDS011;8244;50.044;9.006;2022-12-26T23:59:29;4.70;;;1.77;;
